Time;durP1;ratioP1;P1;durP2;ratioP2;P2;SDS_P1;SDS_P2;PMS_P1;PMS_P2;Temp;Humidity;BMP_temperature;BMP_pressure;BME280_temperature;BME280_humidity;BME280_pressure;Samples;Min_cycle;Max_cycle;Signal;HPM_P1;HPM_P2
2020/12/01 00:00:40;;;;;;;61.85;34.10;;;;;;;3.86;61.55;100784.91;2384733;82;25698;-75
2020/12/01 00:04:01;;;;;;;58.15;32.50;;;;;;;3.86;61.57;100779.75;2384892;81;25607;-76
2020/12/01 00:07:23;;;;;;;60.15;33.02;;;;;;;3.88;61.56;100776.84;2384663;82;25715;-84
2020/12/01 00:10:44;;;;;;;66.47;32.65;;;;;;;3.89;61.58;100790.25;2384664;81;25679;-84
2020/12/01 00:14:07;;;;;;;57.80;33.35;;;;;;;3.89;61.60;100791.53;2383062;83;25699;-75
2020/12/01 00:17:28;;;;;;;57.93;35.68;;;;;;;3.91;61.62;100798.94;2382857;82;25403;-75
2020/12/01 00:20:56;;;;;;;59.98;33.83;;;;;;;3.91;61.62;100795.95;2382029;81;25694;-74
2020/12/01 00:24:18;;;;;;;63.75;34.18;;;;;;;3.91;61.63;100795.07;2384607;81;25682;-75
2020/12/01 00:28:14;;;;;;;63.13;34.73;;;;;;;3.92;61.63;100789.13;2408079;82;25632;-75
2020/12/01 00:31:41;;;;;;;65.95;34.15;;;;;;;3.91;61.65;100788.22;2411719;82;25761;-79
2020/12/01 00:35:31;;;;;;;62.73;33.85;;;;;;;3.94;61.68;100797.83;2402456;82;25611;-83
2020/12/01 00:38:52;;;;;;;;;;;;;;;3.95;61.70;100797.05;2403071;82;25745;-84
2020/12/01 00:42:14;;;;;;;65.92;32.40;;;;;;;3.95;61.77;100799.22;2404790;82;25768;-81
2020/12/01 00:45:36;;;;;;;57.55;32.10;;;;;;;3.95;61.75;100794.47;2406070;82;25681;-76
2020/12/01 00:48:58;;;;;;;64.47;36.45;;;;;;;3.96;61.75;100794.55;2405885;82;25706;-75
2020/12/01 00:52:20;;;;;;;61.45;35.40;;;;;;;3.97;61.77;100789.86;2388776;82;25728;-75
2020/12/01 00:55:44;;;;;;;66.33;35.15;;;;;;;3.99;61.77;100794.72;2408029;82;25650;-75
2020/12/01 00:59:06;;;;;;;62.58;35.15;;;;;;;4.00;61.79;100793.02;2283836;84;25855;-78
2020/12/01 01:02:29;;;;;;;72.82;37.50;;;;;;;4.01;61.79;100789.63;2280346;86;25612;-76
2020/12/01 01:05:51;;;;;;;65.37;36.17;;;;;;;4.02;61.79;100779.82;2280685;86;25845;-76
2020/12/01 01:09:13;;;;;;;70.78;35.20;;;;;;;4.02;61.79;100782.40;2283330;86;25764;-82
2020/12/01 01:12:34;;;;;;;74.12;37.90;;;;;;;4.02;61.79;100787.16;2283156;86;25783;-76
2020/12/01 01:16:00;;;;;;;74.62;39.10;;;;;;;4.02;61.81;100784.98;2282023;86;25696;-79
2020/12/01 01:19:22;;;;;;;77.22;38.38;;;;;;;4.01;61.78;100776.33;2226904;86;25825;-76
2020/12/01 01:22:44;;;;;;;72.78;39.63;;;;;;;4.02;61.78;100782.40;2288418;83;25761;-85
2020/12/01 01:26:07;;;;;;;76.82;40.17;;;;;;;4.01;61.79;100778.02;2354138;83;25872;-85
2020/12/01 01:29:29;;;;;;;71.65;38.20;;;;;;;4.00;61.80;100774.96;2343047;81;25630;-77
2020/12/01 01:32:51;;;;;;;77.35;39.65;;;;;;;3.98;61.78;100772.69;2373607;81;25545;-84
2020/12/01 01:36:13;;;;;;;76.45;40.88;;;;;;;3.97;61.79;100770.52;2373607;83;25680;-84
2020/12/01 01:39:50;;;;;;;77.97;40.67;;;;;;;3.95;61.79;100773.42;2371663;81;25605;-76
2020/12/01 01:43:11;;;;;;;76.33;39.80;;;;;;;3.93;61.83;100767.69;2372790;83;25514;-76
2020/12/01 01:46:45;;;;;;;74.62;39.90;;;;;;;3.90;61.83;100758.48;2373662;83;25342;-76
2020/12/01 01:50:18;;;;;;;78.52;40.95;;;;;;;3.89;61.85;100751.56;2372633;81;25581;-76
2020/12/01 01:53:47;;;;;;;73.22;39.95;;;;;;;3.88;61.85;100761.36;2373393;83;25587;-76
2020/12/01 01:57:10;;;;;;;80.10;40.12;;;;;;;3.85;61.89;100758.23;2373827;82;25548;-75
2020/12/01 02:04:20;;;;;;;79.12;40.85;;;;;;;3.83;61.92;100752.09;2373524;81;25686;-75
2020/12/01 02:07:42;;;;;;;76.62;40.80;;;;;;;3.81;61.94;100743.36;2342723;82;25791;-84
2020/12/01 02:11:04;;;;;;;77.55;40.52;;;;;;;3.82;61.96;100750.73;2373412;82;25690;-76
2020/12/01 02:14:39;;;;;;;79.58;41.37;;;;;;;3.80;61.99;100746.75;2373601;83;26203;-77
2020/12/01 02:18:02;;;;;;;86.72;43.60;;;;;;;3.80;61.98;100748.05;2373511;81;25573;-82
2020/12/01 02:21:38;;;;;;;81.20;42.00;;;;;;;3.79;62.01;100742.00;2373510;81;25661;-82
2020/12/01 02:25:00;;;;;;;83.50;44.25;;;;;;;3.78;62.01;100745.39;2344858;83;25696;-82
2020/12/01 02:28:21;;;;;;;77.97;41.53;;;;;;;3.81;62.03;100739.90;2356843;81;26075;-75
2020/12/01 02:31:43;;;;;;;78.47;42.95;;;;;;;3.79;62.05;100730.40;2344105;83;25578;-75
2020/12/01 02:35:09;;;;;;;82.27;41.33;;;;;;;3.81;62.07;100729.18;2345106;83;25687;-83
2020/12/01 02:38:30;;;;;;;76.55;41.80;;;;;;;3.81;62.08;100736.92;2344932;82;25670;-75
2020/12/01 02:42:03;;;;;;;86.90;44.48;;;;;;;3.82;62.10;100727.11;2344812;82;25644;-75
2020/12/01 02:45:25;;;;;;;79.67;41.60;;;;;;;3.83;62.12;100734.03;2323484;83;25687;-74
2020/12/01 02:48:46;;;;;;;80.75;42.38;;;;;;;3.83;62.12;100733.16;2340972;82;25588;-76
2020/12/01 02:52:07;;;;;;;74.65;41.80;;;;;;;3.84;62.14;100734.52;2345287;84;25451;-81
2020/12/01 02:55:29;;;;;;;80.85;42.35;;;;;;;3.85;62.16;100725.08;2345341;84;25521;-75
2020/12/01 02:58:52;;;;;;;76.67;39.65;;;;;;;3.85;62.16;100728.58;2345266;82;25777;-83
2020/12/01 03:02:13;;;;;;;78.05;40.30;;;;;;;3.86;62.18;100725.59;2345412;82;25660;-75
2020/12/01 03:05:34;;;;;;;73.95;39.63;;;;;;;3.87;62.18;100717.92;2345190;82;25842;-74
2020/12/01 03:08:56;;;;;;;81.00;42.45;;;;;;;3.86;62.19;100723.89;2345240;84;25736;-75
2020/12/01 03:12:18;;;;;;;82.37;42.23;;;;;;;3.87;62.20;100717.04;2323242;84;25663;-75
2020/12/01 03:15:39;;;;;;;77.67;39.63;;;;;;;3.88;62.23;100716.23;2345156;82;25537;-78
2020/12/01 03:19:03;;;;;;;79.17;40.70;;;;;;;3.88;62.24;100723.97;2345187;83;25706;-84
2020/12/01 03:22:24;;;;;;;77.80;41.15;;;;;;;3.88;62.25;100731.33;2345293;82;25684;-76
2020/12/01 03:25:45;;;;;;;77.42;41.45;;;;;;;3.89;62.25;100728.34;2345482;83;25356;-84
2020/12/01 03:29:07;;;;;;;77.47;40.35;;;;;;;3.89;62.28;100733.50;2358358;82;25778;-75
2020/12/01 03:32:28;;;;;;;78.97;41.02;;;;;;;3.89;62.30;100732.21;2370208;82;26072;-75
2020/12/01 03:35:50;;;;;;;77.82;40.33;;;;;;;3.88;62.29;100722.30;2318869;82;25385;-76
2020/12/01 03:39:12;;;;;;;79.32;41.53;;;;;;;3.88;62.31;100726.17;2379341;81;25747;-75
2020/12/01 03:42:33;;;;;;;74.90;40.80;;;;;;;3.88;62.33;100722.67;2407654;82;25647;-75
2020/12/01 03:45:55;;;;;;;74.47;39.10;;;;;;;3.88;62.37;100721.38;2409917;82;25724;-75
2020/12/01 03:49:20;;;;;;;76.25;39.90;;;;;;;3.89;62.36;100732.21;2410129;82;25689;-75
2020/12/01 03:52:42;;;;;;;75.52;40.48;;;;;;;3.89;62.37;100722.78;2381613;82;25782;-75
2020/12/01 03:56:04;;;;;;;75.22;40.85;;;;;;;3.88;62.39;100722.67;2410127;82;25519;-75
2020/12/01 03:59:26;;;;;;;85.40;42.35;;;;;;;3.88;62.42;100718.81;2409845;82;25618;-76
2020/12/01 04:02:48;;;;;;;75.67;40.40;;;;;;;3.88;62.40;100722.67;2409460;82;25691;-76
2020/12/01 04:06:11;;;;;;;81.00;39.92;;;;;;;3.86;62.42;100720.02;2409255;82;25705;-75
2020/12/01 04:09:33;;;;;;;74.25;39.58;;;;;;;3.86;62.44;100724.30;2410344;82;25709;-75
2020/12/01 04:12:55;;;;;;;82.10;40.30;;;;;;;3.86;62.45;100717.45;2410218;82;25647;-75
2020/12/01 04:16:16;;;;;;;72.75;39.98;;;;;;;3.85;62.45;100709.23;2408053;82;25549;-75
2020/12/01 04:19:38;;;;;;;71.82;38.85;;;;;;;3.84;62.47;100708.72;2405581;82;25751;-75
2020/12/01 04:22:59;;;;;;;74.25;39.38;;;;;;;3.83;62.47;100713.81;2400705;82;25635;-75
2020/12/01 04:26:25;;;;;;;72.90;38.40;;;;;;;3.81;62.47;100707.66;2410000;82;25679;-75
2020/12/01 04:29:46;;;;;;;75.17;40.10;;;;;;;3.81;62.50;100705.97;2409536;82;25396;-83
2020/12/01 04:33:08;;;;;;;68.00;37.63;;;;;;;3.78;62.49;100704.13;2408685;82;25627;-75
2020/12/01 04:36:30;;;;;;;74.50;39.42;;;;;;;3.77;62.53;100701.45;2406280;82;25861;-75
2020/12/01 04:39:51;;;;;;;71.05;37.38;;;;;;;3.75;62.54;100711.70;2409199;82;25636;-75
2020/12/01 04:43:30;;;;;;;72.58;39.15;;;;;;;3.73;62.56;100709.42;2368272;82;26063;-82
2020/12/01 04:46:53;;;;;;;70.32;36.53;;;;;;;3.72;62.58;100701.20;2383439;82;25817;-76
2020/12/01 04:50:20;;;;;;;76.55;38.38;;;;;;;3.70;62.59;100701.51;2384815;81;25838;-75
2020/12/01 04:54:11;;;;;;;65.30;36.98;;;;;;;3.68;62.60;100707.00;2384447;83;25708;-84
2020/12/01 04:58:11;;;;;;;70.57;36.75;;;;;;;3.67;62.61;100699.16;2408463;82;25727;-83
2020/12/01 05:02:02;;;;;;;71.33;36.73;;;;;;;3.65;62.63;100695.63;2408309;82;25757;-75
2020/12/01 05:09:29;;;;;;;63.90;35.08;;;;;;;3.61;62.66;100693.66;2206903;88;25475;-75
2020/12/01 05:13:17;;;;;;;69.53;36.53;;;;;;;3.61;62.70;100689.41;2592114;76;25508;-75
2020/12/01 05:16:56;;;;;;;65.42;35.85;;;;;;;3.56;62.68;100692.11;2561012;77;25697;-75
2020/12/01 05:20:18;;;;;;;65.42;35.50;;;;;;;3.55;62.70;100686.48;2558805;77;25693;-76
2020/12/01 05:23:48;;;;;;;64.35;35.40;;;;;;;3.53;62.72;100689.36;2563391;77;25589;-81
2020/12/01 05:27:23;;;;;;;63.68;36.20;;;;;;;3.51;62.71;100697.39;2563457;77;25666;-76
2020/12/01 05:30:45;;;;;;;69.82;36.73;;;;;;;3.49;62.74;100690.88;2530092;77;25779;-76
2020/12/01 05:34:12;;;;;;;68.25;37.95;;;;;;;3.47;62.75;100683.45;2562405;77;25758;-75
2020/12/01 05:37:34;;;;;;;68.05;36.23;;;;;;;3.46;62.77;100689.82;2559896;77;25568;-76
2020/12/01 05:41:04;;;;;;;63.60;35.68;;;;;;;3.44;62.78;100689.75;2550197;76;25580;-77
2020/12/01 05:44:30;;;;;;;63.13;34.85;;;;;;;3.44;62.80;100696.56;2539413;77;25746;-76
2020/12/01 05:47:57;;;;;;;68.52;35.63;;;;;;;3.42;62.82;100702.94;2445250;80;25859;-75
2020/12/01 05:51:24;;;;;;;66.95;38.10;;;;;;;3.40;62.83;100699.37;2453764;80;25770;-76
2020/12/01 05:54:51;;;;;;;67.12;36.90;;;;;;;3.39;62.84;100701.87;2466518;80;25661;-76
2020/12/01 05:58:13;;;;;;;70.00;39.03;;;;;;;3.38;62.85;100706.55;2462239;80;25374;-76
2020/12/01 06:01:44;;;;;;;65.37;37.17;;;;;;;3.37;62.85;100703.05;2463450;79;25649;-76
2020/12/01 06:05:10;;;;;;;63.25;36.13;;;;;;;3.35;62.89;100701.22;2466707;79;25627;-76
2020/12/01 06:09:04;;;;;;;67.97;36.83;;;;;;;3.34;62.89;100699.41;2463439;80;25568;-75
2020/12/01 06:12:45;;;;;;;63.13;35.52;;;;;;;3.34;62.90;100712.30;2448537;80;25748;-76
2020/12/01 06:16:30;;;;;;;73.25;36.48;;;;;;;3.31;62.90;100713.92;2435100;80;25906;-75
2020/12/01 06:20:15;;;;;;;58.55;36.68;;;;;;;3.31;62.93;100721.66;2531504;77;25616;-81
2020/12/01 06:24:08;;;;;;;64.15;36.08;;;;;;;3.31;62.93;100727.21;2409337;81;25681;-85
2020/12/01 06:28:04;;;;;;;67.15;36.03;;;;;;;3.30;62.93;100730.56;2408628;82;25606;-83
2020/12/01 06:32:31;;;;;;;67.93;35.30;;;;;;;3.36;62.98;100723.60;2604897;76;25557;-74
2020/12/01 06:36:29;;;;;;;61.70;35.38;;;;;;;3.30;62.97;100732.73;2449502;79;25709;-75
2020/12/01 06:40:05;;;;;;;68.02;37.93;;;;;;;3.30;62.96;100739.17;2449596;80;25611;-75
2020/12/01 06:43:38;;;;;;;63.30;36.40;;;;;;;3.31;62.96;100742.67;2448931;80;25756;-75
2020/12/01 06:46:59;;;;;;;71.28;37.15;;;;;;;3.32;62.94;100740.58;2449417;79;25617;-75
2020/12/01 06:50:22;;;;;;;63.85;36.05;;;;;;;3.35;62.95;100745.03;2449572;79;25724;-75
2020/12/01 06:53:47;;;;;;;62.38;35.50;;;;;;;3.36;62.92;100739.95;2457562;79;25752;-78
2020/12/01 06:57:24;;;;;;;58.28;34.73;;;;;;;3.39;62.90;100734.09;2457067;79;25744;-75
2020/12/01 07:00:45;;;;;;;63.95;36.13;;;;;;;3.44;62.89;100738.72;2456552;79;25727;-80
2020/12/01 07:04:18;;;;;;;66.47;37.38;;;;;;;3.49;62.84;100745.02;2455742;79;25733;-76
2020/12/01 07:07:47;;;;;;;61.98;36.53;;;;;;;3.56;62.80;100741.09;2456727;79;25814;-75
2020/12/01 07:11:26;;;;;;;67.95;37.95;;;;;;;3.64;62.73;100746.68;2456387;79;25644;-77
2020/12/01 07:15:04;;;;;;;63.25;36.85;;;;;;;3.72;62.67;100741.58;2430158;81;25860;-75
2020/12/01 07:18:31;;;;;;;71.37;39.40;;;;;;;3.82;62.55;100736.55;2383014;83;25672;-75
2020/12/01 07:22:27;;;;;;;61.88;34.83;;;;;;;3.89;62.46;100735.67;2352358;83;25812;-74
2020/12/01 07:25:57;;;;;;;67.08;34.13;;;;;;;3.98;62.40;100743.94;2211153;89;25746;-76
2020/12/01 07:34:29;;;;;;;55.78;33.40;;;;;;;4.72;62.14;100750.10;2466675;79;25378;-77
2020/12/01 07:38:33;;;;;;;60.15;36.45;;;;;;;5.79;61.31;100740.41;2473813;79;26100;-77
2020/12/01 07:42:00;;;;;;;58.25;34.55;;;;;;;6.71;60.19;100742.54;2472545;79;25918;-76
2020/12/01 07:45:31;;;;;;;51.92;32.83;;;;;;;7.74;58.74;100749.13;2457739;79;25663;-76
2020/12/01 07:49:19;;;;;;;59.27;35.58;;;;;;;8.41;57.64;100762.22;2455056;78;25678;-83
2020/12/01 07:53:21;;;;;;;52.13;33.47;;;;;;;8.67;56.74;100755.42;2496161;78;27818;-81
2020/12/01 07:56:42;;;;;;;48.23;31.57;;;;;;;9.67;55.72;100753.70;2465882;79;25629;-76
2020/12/01 08:00:05;;;;;;;55.20;33.30;;;;;;;9.93;54.44;100759.77;2433205;79;25794;-75
2020/12/01 08:03:39;;;;;;;52.13;35.05;;;;;;;10.30;53.69;100756.63;2453784;78;25795;-78
2020/12/01 08:07:02;;;;;;;50.65;31.80;;;;;;;10.85;52.88;100759.97;2423582;77;26233;-76
2020/12/01 08:10:35;;;;;;;50.73;31.33;;;;;;;11.94;51.84;100767.66;2454274;78;26030;-78
2020/12/01 08:14:19;;;;;;;44.05;29.77;;;;;;;12.97;50.54;100775.17;2259924;83;25810;-79
2020/12/01 08:21:57;;;;;;;45.73;28.42;;;;;;;15.08;47.34;100786.88;2234359;84;25795;-77
2020/12/01 08:25:23;;;;;;;44.00;28.67;;;;;;;16.08;46.38;100797.97;2181989;88;25740;-89
2020/12/01 08:28:50;;;;;;;40.08;28.30;;;;;;;16.91;44.41;100798.08;2168876;89;25821;-78
2020/12/01 08:33:04;;;;;;;;;;;;;;;17.64;43.35;100805.73;2159437;88;26326;-78
2020/12/01 08:37:35;;;;;;;37.35;25.57;;;;;;;18.35;41.59;100805.33;2160981;88;25777;-75
2020/12/01 08:42:07;;;;;;;38.17;25.75;;;;;;;19.04;40.80;100802.53;2356418;81;26359;-75
2020/12/01 08:45:41;;;;;;;33.50;24.52;;;;;;;19.79;39.33;100808.27;2247832;85;26114;-81
2020/12/01 08:49:23;;;;;;;37.58;24.95;;;;;;;20.01;38.36;100820.00;2252125;86;26044;-77
2020/12/01 08:52:46;;;;;;;33.08;24.82;;;;;;;20.29;37.53;100828.16;2236455;84;25846;-76
2020/12/01 08:56:16;;;;;;;35.28;24.15;;;;;;;20.11;37.24;100824.33;2232620;85;25893;-77
2020/12/01 08:59:54;;;;;;;32.15;24.65;;;;;;;19.68;37.12;100816.74;2236884;86;25756;-76
2020/12/01 09:03:16;;;;;;;32.20;24.25;;;;;;;19.20;37.25;100824.02;2224885;86;26066;-81
2020/12/01 09:06:38;;;;;;;42.78;28.12;;;;;;;18.54;36.77;100822.02;2260105;84;25909;-75
2020/12/01 09:10:32;;;;;;;34.33;25.00;;;;;;;16.64;34.56;100823.80;2238570;85;25915;-78
2020/12/01 09:25:28;;;;;;;37.65;26.37;;;;;;;13.67;39.01;100814.95;2365239;81;26006;-81
2020/12/01 09:28:55;;;;;;;36.17;23.50;;;;;;;14.55;39.04;100816.84;2367504;79;26448;-76
2020/12/01 09:32:42;;;;;;;32.13;23.42;;;;;;;15.23;38.77;100808.08;2369195;81;26115;-80
2020/12/01 09:36:40;;;;;;;31.17;22.67;;;;;;;15.67;38.71;100809.45;2291057;84;25815;-77
2020/12/01 09:40:16;;;;;;;35.88;22.93;;;;;;;16.06;38.67;100803.64;2281235;85;33273;-76
2020/12/01 09:44:08;;;;;;;34.75;22.95;;;;;;;16.23;38.55;100802.45;2273546;84;26037;-76
2020/12/01 09:52:14;;;;;;;29.57;22.25;;;;;;;16.17;38.62;100792.78;2419519;79;31415;-76
2020/12/01 10:07:49;;;;;;;30.72;20.45;;;;;;;17.15;38.95;100806.51;2324380;81;26110;-90
2020/12/01 10:23:09;;;;;;;36.83;25.45;;;;;;;18.13;34.09;100787.33;2376489;81;25788;-79
2020/12/01 10:36:39;;;;;;;26.30;20.32;;;;;;;20.78;33.67;100784.39;2399860;81;25673;-81
2020/12/01 10:40:09;;;;;;;26.97;20.52;;;;;;;21.04;32.86;100790.70;2383522;81;25820;-82
2020/12/01 10:43:31;;;;;;;30.85;22.55;;;;;;;20.67;31.66;100783.20;2393256;81;25835;-82
2020/12/01 10:50:49;;;;;;;29.30;20.68;;;;;;;19.58;31.47;100783.28;2240752;86;25587;-84
2020/12/01 10:54:11;;;;;;;29.77;21.45;;;;;;;18.91;31.67;100789.81;2245631;87;25880;-81
2020/12/01 10:57:35;;;;;;;29.10;20.55;;;;;;;18.35;31.86;100792.13;2261390;85;25995;-85
2020/12/01 11:01:01;;;;;;;27.27;21.10;;;;;;;17.94;32.15;100784.69;2249870;86;25995;-84
2020/12/01 11:04:23;;;;;;;30.85;21.05;;;;;;;17.71;32.31;100779.36;2243806;85;26335;-83
2020/12/01 11:07:45;;;;;;;31.23;21.10;;;;;;;17.63;32.53;100787.72;2226076;86;26079;-82
2020/12/01 11:11:19;;;;;;;26.87;19.55;;;;;;;17.54;32.57;100791.66;2261664;86;25576;-82
2020/12/01 11:14:54;;;;;;;26.77;19.50;;;;;;;17.46;32.47;100790.77;2232526;87;26296;-81
2020/12/01 11:18:19;;;;;;;28.42;19.98;;;;;;;17.46;32.46;100781.55;2239414;86;25750;-80
2020/12/01 11:21:43;;;;;;;26.73;19.25;;;;;;;17.60;32.46;100789.47;2276252;84;25800;-84
2020/12/01 11:25:05;;;;;;;26.95;18.60;;;;;;;17.74;32.50;100788.17;2240923;86;25690;-79
2020/12/01 11:28:27;;;;;;;28.87;19.27;;;;;;;17.89;32.14;100780.31;2271829;83;25797;-83
2020/12/01 11:32:19;;;;;;;24.25;19.00;;;;;;;17.99;32.04;100788.66;2288692;84;26221;-77
2020/12/01 11:35:56;;;;;;;23.75;17.95;;;;;;;18.15;31.94;100786.42;2312588;84;25710;-78
2020/12/01 11:39:17;;;;;;;23.95;17.98;;;;;;;18.36;31.39;100784.67;2386422;81;26027;-82
2020/12/01 11:43:14;;;;;;;25.37;18.60;;;;;;;18.52;31.23;100792.97;2380120;82;26477;-93
2020/12/01 11:46:50;;;;;;;26.05;18.55;;;;;;;18.61;31.00;100786.80;2356932;81;25983;-79
2020/12/01 11:50:23;;;;;;;26.70;19.10;;;;;;;18.67;30.58;100783.27;2339474;82;25923;-83
2020/12/01 11:53:45;;;;;;;24.25;18.20;;;;;;;18.59;30.39;100785.45;2363801;82;26887;-83
2020/12/01 11:57:06;;;;;;;24.77;17.20;;;;;;;18.51;30.26;100789.90;2373694;82;26083;-83
2020/12/01 12:00:32;;;;;;;23.65;17.90;;;;;;;18.41;30.24;100792.12;2373801;82;26148;-84
2020/12/01 12:03:54;;;;;;;21.50;18.20;;;;;;;18.36;30.09;100785.98;2364075;81;25615;-85
2020/12/01 12:07:15;;;;;;;21.75;18.73;;;;;;;18.29;30.10;100781.16;2366222;82;25792;-84
2020/12/01 12:11:17;;;;;;;24.05;18.23;;;;;;;18.14;30.29;100781.16;2370260;82;25755;-83
2020/12/01 12:14:40;;;;;;;25.08;17.12;;;;;;;18.03;30.17;100772.39;2368625;82;25842;-82
2020/12/01 12:18:02;;;;;;;26.87;19.57;;;;;;;17.86;30.13;100775.91;2380472;82;25677;-82
2020/12/01 12:21:25;;;;;;;27.95;17.12;;;;;;;17.43;30.14;100770.55;2372617;82;25969;-82
2020/12/01 12:25:01;;;;;;;24.75;17.75;;;;;;;16.91;30.46;100772.18;2335914;82;26144;-78
2020/12/01 12:28:47;;;;;;;22.82;17.00;;;;;;;16.26;30.76;100773.09;2356316;82;25922;-83
2020/12/01 12:32:11;;;;;;;21.90;17.00;;;;;;;15.69;31.20;100769.58;2367604;80;25817;-83
2020/12/01 12:35:36;;;;;;;20.75;17.27;;;;;;;15.17;31.48;100759.41;2376328;80;25862;-82
2020/12/01 12:39:06;;;;;;;25.52;17.50;;;;;;;14.72;31.70;100767.64;2331074;82;25731;-84
2020/12/01 12:42:35;;;;;;;21.20;16.67;;;;;;;14.23;32.01;100765.61;2376455;82;25696;-82
2020/12/01 12:45:59;;;;;;;24.45;17.20;;;;;;;13.77;32.59;100763.55;2371253;82;25862;-84
2020/12/01 12:49:35;;;;;;;22.55;17.73;;;;;;;13.37;32.92;100765.08;2352235;82;26623;-83
2020/12/01 12:53:02;;;;;;;21.25;15.75;;;;;;;12.96;33.29;100766.88;2280268;84;25713;-81
2020/12/01 12:56:25;;;;;;;23.95;17.32;;;;;;;12.52;33.71;100760.29;2280540;85;25790;-82
2020/12/01 13:00:04;;;;;;;23.67;17.23;;;;;;;12.20;34.17;100765.66;2274928;85;26171;-83
2020/12/01 13:03:26;;;;;;;23.18;16.37;;;;;;;11.87;34.45;100758.33;2277025;84;25679;-76
2020/12/01 13:06:47;;;;;;;18.55;15.72;;;;;;;11.48;34.79;100757.77;2151953;89;25815;-82
2020/12/01 13:10:16;;;;;;;21.27;16.57;;;;;;;11.16;35.13;100761.70;2167708;89;25920;-82
2020/12/01 13:13:58;;;;;;;22.67;15.03;;;;;;;10.83;35.58;100760.33;2167764;89;26122;-79
2020/12/01 13:17:41;;;;;;;19.93;15.60;;;;;;;10.55;36.01;100771.69;2498651;77;29718;-81
2020/12/01 13:21:03;;;;;;;24.70;15.88;;;;;;;10.28;36.56;100777.83;2509959;78;25596;-80
2020/12/01 13:24:27;;;;;;;19.25;14.95;;;;;;;10.20;37.08;100780.59;2509827;78;25418;-80
2020/12/01 13:27:51;;;;;;;21.05;14.50;;;;;;;10.19;37.64;100784.02;2467161;78;25533;-80
2020/12/01 13:31:13;;;;;;;18.48;14.25;;;;;;;10.23;38.08;100778.52;2472235;78;25664;-80
2020/12/01 13:34:34;;;;;;;22.77;15.08;;;;;;;10.34;38.30;100786.27;2505091;78;25797;-80
2020/12/01 13:38:08;;;;;;;19.57;13.43;;;;;;;10.46;38.55;100795.78;2500398;78;25821;-77
2020/12/01 13:41:29;;;;;;;18.48;12.75;;;;;;;10.53;38.92;100792.52;2506362;78;25654;-81
2020/12/01 13:44:50;;;;;;;17.60;12.55;;;;;;;10.54;39.10;100805.12;2509615;78;25713;-80
2020/12/01 13:48:15;;;;;;;18.40;13.43;;;;;;;10.49;39.34;100811.48;2509893;78;25608;-81
2020/12/01 13:51:46;;;;;;;18.32;12.88;;;;;;;10.39;39.72;100815.56;2506808;78;25550;-80
2020/12/01 13:55:08;;;;;;;19.62;12.25;;;;;;;10.25;39.87;100815.91;2492192;78;25638;-81
2020/12/01 13:58:30;;;;;;;14.55;11.70;;;;;;;10.12;40.23;100818.53;2459797;78;25710;-80
2020/12/01 14:01:58;;;;;;;15.38;11.73;;;;;;;9.98;40.56;100827.62;2465623;80;25748;-80
2020/12/01 14:05:23;;;;;;;15.58;12.00;;;;;;;9.84;40.74;100828.05;2461767;80;25657;-81
2020/12/01 14:08:47;;;;;;;25.02;12.82;;;;;;;9.70;41.08;100822.80;2461896;80;25719;-81
2020/12/01 14:12:08;;;;;;;16.55;11.53;;;;;;;9.58;41.36;100827.56;2458658;79;25689;-77
2020/12/01 14:15:31;;;;;;;13.90;11.18;;;;;;;9.46;41.66;100835.84;2478990;79;25641;-81
2020/12/01 14:19:04;;;;;;;12.05;10.50;;;;;;;9.35;41.89;100835.47;2471067;79;25747;-77
2020/12/01 14:22:26;;;;;;;13.13;10.63;;;;;;;9.22;42.10;100831.95;2472435;79;25811;-79
2020/12/01 14:25:53;;;;;;;13.00;11.12;;;;;;;9.12;42.37;100841.56;2470849;79;25717;-82
2020/12/01 14:29:37;;;;;;;13.65;10.50;;;;;;;9.01;42.63;100837.27;2434491;80;26040;-76
2020/12/01 14:33:41;;;;;;;;;;;;;;;;;;;;;
2020/12/01 14:48:40;;;;;;;12.20;10.20;;;;;;;8.46;43.91;100849.02;2268876;83;25860;-80
2020/12/01 14:52:18;;;;;;;12.20;10.20;;;;;;;8.32;44.02;100855.34;2191004;88;25693;-79
2020/12/01 14:55:58;;;;;;;14.53;10.77;;;;;;;8.22;44.27;100865.77;2199849;88;25664;-80
2020/12/01 14:59:33;;;;;;;;;;;;;;;8.14;44.49;100858.09;2195827;88;25570;-77
2020/12/01 15:03:25;;;;;;;11.10;9.20;;;;;;;8.05;44.76;100859.00;2177498;88;25680;-80
2020/12/01 15:07:36;;;;;;;15.13;10.20;;;;;;;7.95;44.83;100868.11;2136275;90;26194;-80
2020/12/01 15:11:26;;;;;;;12.00;10.00;;;;;;;7.86;45.03;100856.03;2140067;90;25754;-75
2020/12/01 15:14:49;;;;;;;12.10;9.78;;;;;;;7.78;45.20;100860.91;2145610;90;25680;-76
2020/12/01 15:18:15;;;;;;;13.83;11.50;;;;;;;7.69;45.40;100857.92;2117882;92;25811;-76
2020/12/01 15:21:46;;;;;;;14.00;11.28;;;;;;;7.64;45.54;100865.94;2111141;92;26293;-76
2020/12/01 15:25:23;;;;;;;17.27;13.10;;;;;;;7.63;45.88;100863.26;2570103;75;32074;-80
2020/12/01 15:28:48;;;;;;;14.28;11.15;;;;;;;7.74;45.66;100869.41;2561376;77;25598;-76
2020/12/01 15:32:10;;;;;;;15.78;11.33;;;;;;;7.69;45.90;100874.78;2465483;80;25711;-80
2020/12/01 15:35:36;;;;;;;11.43;10.30;;;;;;;7.60;46.04;100881.31;2509756;78;25594;-76
2020/12/01 15:38:58;;;;;;;14.13;11.03;;;;;;;7.50;46.21;100889.11;2509803;78;25630;-79
2020/12/01 15:42:21;;;;;;;15.88;11.85;;;;;;;7.41;46.40;100886.98;2509884;78;25335;-77
2020/12/01 15:45:43;;;;;;;19.05;11.85;;;;;;;7.33;46.51;100893.55;2509997;78;25655;-80
2020/12/01 15:49:09;;;;;;;16.87;12.20;;;;;;;7.25;46.67;100894.47;2510053;78;25714;-76
2020/12/01 15:52:54;;;;;;;17.67;12.23;;;;;;;7.19;46.80;100898.11;2509767;78;25671;-76
2020/12/01 15:56:33;;;;;;;14.28;11.45;;;;;;;7.13;46.90;100900.42;2509211;78;25687;-76
2020/12/01 16:00:36;;;;;;;12.13;10.53;;;;;;;7.05;47.03;100892.30;2508795;78;25612;-77
2020/12/01 16:04:23;;;;;;;14.63;11.80;;;;;;;6.98;47.21;100894.11;2465797;78;25848;-81
2020/12/01 16:12:33;;;;;;;16.97;11.90;;;;;;;6.92;47.69;100899.41;2578422;75;25590;-80
2020/12/01 16:16:32;;;;;;;16.15;12.78;;;;;;;6.79;47.66;100902.75;2538029;76;25523;-74
2020/12/01 16:20:05;;;;;;;18.30;12.13;;;;;;;6.74;47.84;100910.70;2525864;77;25692;-75
2020/12/01 16:23:27;;;;;;;16.27;12.55;;;;;;;6.69;47.97;100912.20;2396449;79;26351;-75
2020/12/01 16:27:13;;;;;;;18.32;12.75;;;;;;;6.64;48.10;100909.78;2421858;79;25626;-76
2020/12/01 16:30:38;;;;;;;21.17;14.38;;;;;;;6.60;48.21;100910.45;2426006;79;25913;-75
2020/12/01 16:34:00;;;;;;;24.45;15.43;;;;;;;6.56;48.32;100917.19;2431342;79;25392;-81
2020/12/01 16:37:51;;;;;;;22.17;13.88;;;;;;;6.53;48.47;100918.75;2428604;81;25977;-76
2020/12/01 16:41:19;;;;;;;18.20;13.38;;;;;;;6.49;48.63;100921.59;2415942;80;25808;-75
2020/12/01 16:44:47;;;;;;;21.75;14.25;;;;;;;6.45;48.72;100915.80;2368582;80;25830;-75
2020/12/01 16:48:39;;;;;;;22.27;15.18;;;;;;;6.41;48.83;100916.44;2419117;79;25573;-80
2020/12/01 16:52:36;;;;;;;21.97;14.28;;;;;;;6.39;48.92;100925.85;2396941;82;25407;-82
2020/12/01 16:56:58;;;;;;;23.93;15.43;;;;;;;6.40;49.27;100934.09;2593039;75;25716;-75
2020/12/01 17:00:45;;;;;;;19.00;14.03;;;;;;;6.30;49.21;100937.05;2544713;76;25652;-76
2020/12/01 17:04:32;;;;;;;23.18;15.30;;;;;;;6.25;49.33;100955.36;2515148;78;25394;-75
2020/12/01 17:07:55;;;;;;;28.02;16.42;;;;;;;6.22;49.49;100948.73;2515001;78;25600;-75
2020/12/01 17:11:18;;;;;;;25.55;16.55;;;;;;;6.19;49.56;100949.46;2515065;78;25632;-75
2020/12/01 17:14:58;;;;;;;26.05;15.58;;;;;;;6.16;49.66;100953.19;2515006;77;25517;-77
2020/12/01 17:18:19;;;;;;;22.30;15.15;;;;;;;6.14;49.76;100960.89;2459659;79;25613;-76
2020/12/01 17:21:42;;;;;;;25.17;17.02;;;;;;;6.11;49.86;100972.38;2462116;80;25775;-77
2020/12/01 17:25:04;;;;;;;24.72;17.20;;;;;;;6.08;49.98;100964.45;2461932;79;25443;-79
2020/12/01 17:28:33;;;;;;;30.17;17.65;;;;;;;6.07;50.06;100971.72;2462061;80;25607;-77
2020/12/01 17:32:05;;;;;;;25.45;17.12;;;;;;;6.05;50.14;100976.36;2462214;80;25689;-76
2020/12/01 17:35:44;;;;;;;26.93;18.60;;;;;;;6.04;50.24;100981.03;2461029;79;25547;-76